Terminal Aerodrome Forecast
Issued by NWS

Home | Current Version | Previous Version | Text Only | Print | Product List | Glossary On
Versions: 1 2 3 4 5 6 7 8 9 10 11 12 13 14
000
FTUS43 KEAX 151129
TAFSTJ
TAF
KSTJ 151129Z 1512/1612 33010KT P6SM FEW035 OVC060
     FM151700 25009G20KT P6SM FEW250
     FM152300 21009KT P6SM FEW250
     FM160200 21008KT P6SM FEW250 WS020/23040KT=

USA.gov is the U.S. government's official web portal to all federal, state and local government web resources and services.